Time;durP1;ratioP1;P1;durP2;ratioP2;P2;SDS_P1;SDS_P2;PMS_P1;PMS_P2;Temp;Humidity;BMP_temperature;BMP_pressure;BME280_temperature;BME280_humidity;BME280_pressure;Samples;Min_cycle;Max_cycle;Signal;HPM_P1;HPM_P2
2022/05/18 00:01:47;;;;;;;55.33;39.92;;;17.70;99.90;;;;;;6323575;28;20097;-65
2022/05/18 00:04:49;;;;;;;49.08;38.17;;;17.60;99.90;;;;;;6324311;28;20044;-65
2022/05/18 00:07:50;;;;;;;51.85;39.20;;;17.60;99.90;;;;;;6319732;28;20872;-65
2022/05/18 00:10:52;;;;;;;51.47;38.55;;;17.60;99.90;;;;;;6323051;28;20427;-65
2022/05/18 00:13:53;;;;;;;59.45;39.80;;;17.50;99.90;;;;;;6321595;28;20047;-65
2022/05/18 00:16:56;;;;;;;57.85;41.58;;;17.50;99.90;;;;;;6323035;28;20052;-65
2022/05/18 00:19:57;;;;;;;55.50;39.75;;;17.50;99.90;;;;;;6322917;28;20113;-65
2022/05/18 00:22:58;;;;;;;56.83;41.53;;;17.40;99.90;;;;;;6321807;28;20190;-65
2022/05/18 00:26:00;;;;;;;58.42;40.30;;;17.40;99.90;;;;;;6323660;28;20135;-65
2022/05/18 00:29:01;;;;;;;54.65;39.85;;;17.40;99.90;;;;;;6321313;28;20050;-65
2022/05/18 00:32:03;;;;;;;53.50;39.03;;;17.40;99.90;;;;;;6323774;28;20050;-65
2022/05/18 00:35:04;;;;;;;56.70;40.88;;;17.30;99.90;;;;;;6323422;28;20106;-65
2022/05/18 00:38:07;;;;;;;55.47;38.83;;;17.30;99.90;;;;;;6320734;28;20050;-65
2022/05/18 00:41:08;;;;;;;60.05;41.67;;;17.20;99.90;;;;;;6323028;28;20036;-65
2022/05/18 00:44:09;;;;;;;54.53;39.58;;;17.20;99.90;;;;;;6323014;28;20488;-65
2022/05/18 00:47:11;;;;;;;51.35;38.38;;;17.10;99.90;;;;;;6321006;28;20067;-65
2022/05/18 00:50:12;;;;;;;52.08;39.15;;;17.10;99.90;;;;;;6320338;28;20452;-65
2022/05/18 00:53:14;;;;;;;48.90;38.30;;;17.10;99.90;;;;;;6321010;28;20472;-65
2022/05/18 00:56:15;;;;;;;50.70;37.00;;;17.10;99.90;;;;;;6323198;28;20048;-65
2022/05/18 00:59:17;;;;;;;56.53;39.72;;;17.00;99.90;;;;;;6322964;28;20044;-65
2022/05/18 01:02:18;;;;;;;49.53;36.40;;;17.00;99.90;;;;;;6319966;28;20054;-65
2022/05/18 01:05:20;;;;;;;46.78;35.80;;;17.00;99.90;;;;;;6321171;28;20036;-65
2022/05/18 01:08:21;;;;;;;47.17;34.28;;;17.00;99.90;;;;;;6322646;28;20479;-65
2022/05/18 01:11:22;;;;;;;48.15;34.05;;;16.90;99.90;;;;;;6320421;28;20461;-65
2022/05/18 01:14:24;;;;;;;45.03;35.05;;;16.90;99.90;;;;;;6319940;28;20055;-64
2022/05/18 01:17:25;;;;;;;44.42;33.45;;;16.80;99.90;;;;;;6322658;28;20100;-65
2022/05/18 01:20:27;;;;;;;42.72;33.42;;;16.80;99.90;;;;;;6319343;28;20128;-65
2022/05/18 01:23:29;;;;;;;42.72;32.17;;;16.70;99.90;;;;;;6319403;28;20085;-65
2022/05/18 01:26:30;;;;;;;41.03;31.77;;;16.70;99.90;;;;;;6319687;28;20666;-65
2022/05/18 01:29:31;;;;;;;43.05;30.95;;;16.70;99.90;;;;;;6320208;28;20177;-65
2022/05/18 01:32:33;;;;;;;40.92;28.40;;;16.60;99.90;;;;;;6318121;28;20058;-65
2022/05/18 01:35:34;;;;;;;38.30;28.90;;;16.60;99.90;;;;;;6322242;28;20178;-65
2022/05/18 01:38:36;;;;;;;36.45;27.67;;;16.60;99.90;;;;;;6321883;28;20052;-65
2022/05/18 01:41:37;;;;;;;37.05;28.63;;;16.60;99.90;;;;;;6318673;28;20192;-65
2022/05/18 01:44:39;;;;;;;38.90;26.70;;;16.60;99.90;;;;;;6321921;28;20209;-65
2022/05/18 01:47:40;;;;;;;39.55;27.73;;;16.70;99.90;;;;;;6319696;28;20526;-65
2022/05/18 01:50:42;;;;;;;34.78;26.90;;;16.70;99.90;;;;;;6320882;28;20061;-65
2022/05/18 01:53:43;;;;;;;38.20;27.73;;;16.60;99.90;;;;;;6321193;28;20134;-65
2022/05/18 01:56:44;;;;;;;33.88;25.75;;;16.60;99.90;;;;;;6321841;28;20123;-65
2022/05/18 01:59:46;;;;;;;38.88;26.42;;;16.60;99.90;;;;;;6346899;28;20087;-65
2022/05/18 02:02:47;;;;;;;38.33;25.48;;;16.60;99.90;;;;;;6325685;28;20132;-65
2022/05/18 02:05:49;;;;;;;29.75;23.38;;;16.50;99.90;;;;;;6322398;28;20088;-65
2022/05/18 02:08:50;;;;;;;33.55;23.80;;;16.50;99.90;;;;;;6321471;28;20184;-65
2022/05/18 02:11:52;;;;;;;31.90;23.30;;;16.50;99.90;;;;;;6321777;28;20051;-65
2022/05/18 02:14:53;;;;;;;29.95;23.08;;;16.50;99.90;;;;;;6319750;28;20521;-65
2022/05/18 02:17:55;;;;;;;31.67;21.65;;;16.50;99.90;;;;;;6318878;28;20044;-65
2022/05/18 02:20:56;;;;;;;26.08;21.45;;;16.40;99.90;;;;;;6320722;28;20131;-65
2022/05/18 02:23:58;;;;;;;29.95;22.25;;;16.40;99.90;;;;;;6328797;28;20127;-65
2022/05/18 02:26:59;;;;;;;24.98;20.85;;;16.40;99.90;;;;;;6321398;28;20139;-65
2022/05/18 02:30:01;;;;;;;25.02;20.15;;;16.40;99.90;;;;;;6320749;28;20096;-65
2022/05/18 02:33:03;;;;;;;26.02;20.15;;;16.30;99.90;;;;;;6321624;28;20044;-66
2022/05/18 02:36:04;;;;;;;29.63;21.63;;;16.30;99.90;;;;;;6321214;28;20178;-65
2022/05/18 02:39:05;;;;;;;30.95;22.20;;;16.30;99.90;;;;;;6323756;28;20192;-65
2022/05/18 02:42:07;;;;;;;28.52;22.33;;;16.30;99.90;;;;;;6325053;28;20158;-65
2022/05/18 02:45:08;;;;;;;26.70;20.92;;;16.20;99.90;;;;;;6325303;28;20093;-65
2022/05/18 02:48:11;;;;;;;26.45;21.25;;;16.20;99.90;;;;;;6325487;28;20121;-65
2022/05/18 02:51:12;;;;;;;28.42;20.65;;;16.20;99.90;;;;;;6325776;28;20173;-65
2022/05/18 02:57:32;;;;;;;29.55;21.73;;;16.10;99.90;;;;;;6295940;28;20055;-65
2022/05/18 03:00:34;;;;;;;30.17;21.73;;;16.00;99.90;;;;;;6324974;28;20083;-65
2022/05/18 03:03:35;;;;;;;31.05;22.17;;;16.00;99.90;;;;;;6326134;28;20165;-65
2022/05/18 03:06:36;;;;;;;26.67;20.75;;;16.00;99.90;;;;;;6324798;28;20092;-65
2022/05/18 03:09:38;;;;;;;27.98;21.67;;;16.00;99.90;;;;;;6324582;28;20093;-65
2022/05/18 03:12:39;;;;;;;27.02;21.05;;;15.90;99.90;;;;;;6325066;28;20174;-65
2022/05/18 03:15:41;;;;;;;31.33;21.15;;;16.00;99.90;;;;;;6324576;28;20079;-65
2022/05/18 03:18:42;;;;;;;29.02;20.55;;;15.90;99.90;;;;;;6324209;28;20052;-65
2022/05/18 03:25:05;;;;;;;32.00;21.13;;;15.80;99.90;;;;;;6324632;28;20032;-66
2022/05/18 03:28:07;;;;;;;24.98;20.30;;;15.80;99.90;;;;;;6324027;28;20040;-65
2022/05/18 03:31:08;;;;;;;26.50;20.20;;;15.80;99.90;;;;;;6324277;28;20121;-65
2022/05/18 03:34:10;;;;;;;22.60;18.38;;;15.70;99.90;;;;;;6325165;28;20101;-65
2022/05/18 03:37:11;;;;;;;23.85;19.60;;;15.70;99.90;;;;;;6322511;28;20427;-65
2022/05/18 03:40:13;;;;;;;27.50;20.75;;;15.70;99.90;;;;;;6324800;28;20560;-65
2022/05/18 03:43:14;;;;;;;25.33;20.38;;;15.70;99.90;;;;;;6324662;28;20066;-65
2022/05/18 03:46:16;;;;;;;27.15;18.95;;;15.60;99.90;;;;;;6323757;28;20527;-65
2022/05/18 03:49:17;;;;;;;25.85;19.08;;;15.60;99.90;;;;;;6323450;28;20044;-65
2022/05/18 03:52:19;;;;;;;26.27;19.73;;;15.60;99.90;;;;;;6322729;28;20484;-65
2022/05/18 03:55:20;;;;;;;24.63;18.45;;;15.60;99.90;;;;;;6323651;28;20052;-65
2022/05/18 03:58:22;;;;;;;23.30;18.92;;;15.60;99.90;;;;;;6322735;28;20575;-65
2022/05/18 04:01:23;;;;;;;25.88;18.50;;;15.60;99.90;;;;;;6323625;28;20044;-65
2022/05/18 04:04:25;;;;;;;23.05;17.90;;;15.60;99.90;;;;;;6324647;28;20039;-65
2022/05/18 04:07:26;;;;;;;26.33;19.02;;;15.60;99.90;;;;;;6320672;28;20130;-65
2022/05/18 04:10:28;;;;;;;24.23;18.60;;;15.60;99.90;;;;;;6322942;28;20125;-65
2022/05/18 04:13:30;;;;;;;26.25;18.23;;;15.50;99.90;;;;;;6322425;28;20087;-65
2022/05/18 04:16:32;;;;;;;21.70;17.25;;;15.60;99.90;;;;;;6320943;28;20063;-65
2022/05/18 04:19:33;;;;;;;24.83;18.08;;;15.60;99.90;;;;;;6322788;28;20181;-65
2022/05/18 04:22:36;;;;;;;22.23;17.10;;;15.50;99.90;;;;;;6322969;28;20073;-65
2022/05/18 04:25:37;;;;;;;25.77;17.73;;;15.50;99.90;;;;;;6323198;28;20044;-65
2022/05/18 04:28:39;;;;;;;23.98;17.35;;;15.50;99.90;;;;;;6317962;28;20621;-65
2022/05/18 04:31:41;;;;;;;23.42;17.45;;;15.60;99.90;;;;;;6323989;28;20185;-65
2022/05/18 04:34:48;;;;;;;22.00;16.63;;;15.60;99.90;;;;;;6321800;28;20416;-65
2022/05/18 04:37:49;;;;;;;20.83;15.18;;;15.60;99.90;;;;;;6321682;28;20130;-65
2022/05/18 04:40:51;;;;;;;22.13;16.73;;;15.70;99.90;;;;;;6323511;28;20127;-65
2022/05/18 04:43:52;;;;;;;28.17;15.80;;;15.70;99.90;;;;;;6321409;28;20043;-65
2022/05/18 04:46:53;;;;;;;20.60;16.23;;;15.70;99.90;;;;;;6322164;28;20067;-65
2022/05/18 04:49:55;;;;;;;20.60;15.40;;;15.70;99.90;;;;;;6321795;28;20197;-66
2022/05/18 04:52:56;;;;;;;21.60;15.80;;;15.80;99.90;;;;;;6323515;28;20123;-66
2022/05/18 04:55:58;;;;;;;20.20;16.05;;;15.80;99.90;;;;;;6320720;28;20119;-66
2022/05/18 04:58:59;;;;;;;19.75;15.35;;;15.80;99.90;;;;;;6320769;28;20148;-66
2022/05/18 05:02:01;;;;;;;18.17;15.18;;;16.00;99.90;;;;;;6309575;28;20505;-66
2022/05/18 05:05:02;;;;;;;20.92;14.68;;;16.10;99.90;;;;;;6307390;28;20050;-65
2022/05/18 05:08:04;;;;;;;19.08;15.38;;;16.20;99.90;;;;;;6322109;28;20166;-66
2022/05/18 05:11:05;;;;;;;21.00;15.07;;;16.30;99.90;;;;;;6322605;28;20131;-66
2022/05/18 05:14:07;;;;;;;17.98;15.60;;;16.50;99.90;;;;;;6322395;28;20129;-66
2022/05/18 05:17:08;;;;;;;18.00;14.85;;;16.90;99.90;;;;;;6320263;28;20100;-66
2022/05/18 05:20:10;;;;;;;22.02;14.70;;;17.00;99.90;;;;;;6319712;28;20098;-66
2022/05/18 05:23:11;;;;;;;17.40;14.32;;;16.90;99.90;;;;;;6321395;28;20060;-66
2022/05/18 05:26:12;;;;;;;17.48;14.95;;;16.90;99.90;;;;;;6322260;28;20112;-66
2022/05/18 05:29:14;;;;;;;17.95;14.50;;;16.90;99.90;;;;;;6319723;28;20135;-66
2022/05/18 05:32:16;;;;;;;20.70;14.93;;;16.80;99.90;;;;;;6321942;28;20043;-66
2022/05/18 05:35:17;;;;;;;21.00;15.88;;;16.80;99.90;;;;;;6320684;28;20051;-66
2022/05/18 05:38:19;;;;;;;21.00;15.27;;;16.90;99.90;;;;;;6320936;28;20063;-66
2022/05/18 05:41:20;;;;;;;15.13;13.63;;;16.90;99.90;;;;;;6318785;28;20166;-66
2022/05/18 05:44:22;;;;;;;18.65;14.57;;;17.00;99.90;;;;;;6321878;28;20071;-66
2022/05/18 05:47:23;;;;;;;18.52;14.63;;;17.10;99.90;;;;;;6260390;28;20489;-66
2022/05/18 05:50:25;;;;;;;16.75;13.40;;;17.20;99.90;;;;;;6286204;28;20562;-66
2022/05/18 05:53:26;;;;;;;15.27;10.07;;;17.30;99.90;;;;;;6296655;28;20091;-66
2022/05/18 05:56:28;;;;;;;11.98;10.40;;;17.50;99.90;;;;;;6296673;28;20136;-66
2022/05/18 05:59:29;;;;;;;13.45;12.10;;;17.70;99.90;;;;;;6295643;28;20075;-66
2022/05/18 06:02:31;;;;;;;11.98;9.23;;;18.10;99.90;;;;;;6261260;28;20174;-65
2022/05/18 06:05:32;;;;;;;16.75;9.00;;;18.60;99.90;;;;;;6326123;28;20173;-66
2022/05/18 06:08:34;;;;;;;16.77;11.50;;;18.90;99.90;;;;;;6318484;28;20060;-65
2022/05/18 06:11:36;;;;;;;92.10;23.45;;;19.20;99.90;;;;;;6314597;28;20500;-66
2022/05/18 06:14:37;;;;;;;18.52;9.90;;;19.30;99.90;;;;;;6318837;28;20040;-66
2022/05/18 06:17:39;;;;;;;18.35;10.30;;;19.40;99.90;;;;;;6237046;27;20052;-66
2022/05/18 06:20:40;;;;;;;14.27;8.18;;;19.40;99.90;;;;;;6295644;28;20136;-66
2022/05/18 06:23:42;;;;;;;23.00;9.23;;;19.30;99.90;;;;;;6287334;28;20075;-66
2022/05/18 06:26:43;;;;;;;13.48;8.68;;;19.30;99.90;;;;;;6294042;28;20051;-66
2022/05/18 06:29:45;;;;;;;9.80;7.72;;;19.30;99.90;;;;;;6291531;28;20135;-66
2022/05/18 06:32:47;;;;;;;15.63;10.43;;;19.50;99.90;;;;;;6296332;28;20072;-66
2022/05/18 06:35:51;;;;;;;11.07;8.45;;;20.00;99.90;;;;;;6294232;28;20057;-66
2022/05/18 06:38:52;;;;;;;7.97;5.40;;;20.00;99.90;;;;;;6296492;28;20059;-66
2022/05/18 06:41:54;;;;;;;8.32;5.45;;;19.90;99.90;;;;;;6295719;28;20174;-66
2022/05/18 06:44:55;;;;;;;9.23;6.97;;;20.00;99.90;;;;;;6294827;28;20040;-66
2022/05/18 06:47:57;;;;;;;10.75;7.63;;;20.00;99.90;;;;;;6295465;28;20189;-66
2022/05/18 06:50:58;;;;;;;9.73;6.70;;;20.20;99.90;;;;;;6296238;28;20052;-67
2022/05/18 06:53:59;;;;;;;9.57;7.38;;;20.50;99.90;;;;;;6296771;28;20052;-67
2022/05/18 06:57:01;;;;;;;8.43;6.45;;;20.90;99.90;;;;;;6321055;28;20051;-67
2022/05/18 07:00:04;;;;;;;5.10;4.22;;;21.30;99.90;;;;;;6301892;28;20179;-66
2022/05/18 07:03:05;;;;;;;9.90;6.65;;;21.60;99.90;;;;;;6295961;28;20051;-66
2022/05/18 07:06:07;;;;;;;9.18;5.72;;;22.10;99.60;;;;;;6296051;28;20186;-66
2022/05/18 07:09:08;;;;;;;15.15;9.10;;;22.50;98.90;;;;;;6288953;28;20040;-67
2022/05/18 07:12:10;;;;;;;11.73;8.63;;;22.80;97.80;;;;;;6290710;28;20043;-66
2022/05/18 07:15:12;;;;;;;9.25;6.43;;;23.20;97.30;;;;;;6283602;28;20049;-66
2022/05/18 07:18:13;;;;;;;9.23;6.18;;;23.60;96.40;;;;;;6295457;28;20053;-66
2022/05/18 07:21:15;;;;;;;14.90;9.05;;;24.00;95.90;;;;;;6295497;28;20127;-66
2022/05/18 07:24:16;;;;;;;13.52;9.55;;;24.30;95.40;;;;;;6297949;28;20213;-66
2022/05/18 07:27:18;;;;;;;13.57;7.53;;;24.60;95.20;;;;;;6299820;28;20080;-66
2022/05/18 07:30:19;;;;;;;11.95;7.55;;;24.80;94.40;;;;;;6306378;28;20048;-67
2022/05/18 07:33:21;;;;;;;9.05;6.82;;;25.00;93.90;;;;;;6298438;28;20121;-67
2022/05/18 07:36:22;;;;;;;11.60;7.32;;;25.10;93.60;;;;;;6300135;28;20044;-67
2022/05/18 07:39:24;;;;;;;12.50;7.97;;;25.20;93.40;;;;;;6299041;28;20048;-67
2022/05/18 07:42:26;;;;;;;9.02;6.70;;;25.10;93.40;;;;;;6299954;28;20094;-67
2022/05/18 07:45:28;;;;;;;8.00;4.78;;;25.10;93.40;;;;;;6302592;28;20735;-66
2022/05/18 07:48:29;;;;;;;7.47;4.22;;;25.10;93.30;;;;;;6299506;28;20199;-67
2022/05/18 07:51:31;;;;;;;10.15;7.10;;;25.30;93.30;;;;;;6299193;28;20194;-65
2022/05/18 07:54:32;;;;;;;8.57;4.70;;;25.40;92.90;;;;;;6298060;28;20040;-66
2022/05/18 07:57:33;;;;;;;14.25;9.00;;;25.50;92.60;;;;;;6299058;28;20489;-67
2022/05/18 08:00:35;;;;;;;8.48;5.35;;;25.40;92.70;;;;;;6298979;28;20066;-66
2022/05/18 08:03:37;;;;;;;8.57;6.80;;;25.30;92.50;;;;;;6314395;28;20052;-66
2022/05/18 08:06:38;;;;;;;8.43;5.22;;;25.20;92.60;;;;;;6316687;28;20053;-67
2022/05/18 08:16:14;;;;;;;13.13;7.45;;;25.40;92.20;;;;;;6274315;28;20414;-66
2022/05/18 08:19:16;;;;;;;8.32;4.80;;;25.40;92.20;;;;;;6301113;28;20512;-66
2022/05/18 08:22:18;;;;;;;6.45;4.68;;;25.40;92.20;;;;;;6323908;28;20047;-66
2022/05/18 08:25:19;;;;;;;5.63;5.03;;;25.40;92.10;;;;;;6303204;28;20048;-66
2022/05/18 08:28:20;;;;;;;8.80;7.10;;;25.30;92.30;;;;;;6297045;28;20561;-66
2022/05/18 08:31:23;;;;;;;5.65;4.50;;;25.30;92.20;;;;;;6298905;28;20052;-66
2022/05/18 08:34:24;;;;;;;5.35;3.85;;;25.40;91.90;;;;;;6298369;28;20049;-66
2022/05/18 08:37:26;;;;;;;7.63;4.45;;;25.50;91.80;;;;;;6298819;28;20508;-66
2022/05/18 08:40:27;;;;;;;7.53;6.22;;;25.70;91.30;;;;;;6295860;28;20635;-66
2022/05/18 08:43:29;;;;;;;8.82;6.72;;;25.60;91.60;;;;;;6307607;28;20524;-66
2022/05/18 08:46:30;;;;;;;16.38;9.45;;;25.40;91.70;;;;;;6297871;28;20048;-66
2022/05/18 08:49:32;;;;;;;10.68;7.53;;;25.30;92.00;;;;;;6298034;28;20183;-66
2022/05/18 08:52:33;;;;;;;8.98;5.15;;;25.10;92.00;;;;;;6297786;28;20139;-66
2022/05/18 08:55:36;;;;;;;10.07;7.05;;;25.00;92.30;;;;;;6298589;28;20131;-66
2022/05/18 08:58:37;;;;;;;9.37;5.10;;;24.90;92.20;;;;;;6296079;28;20044;-66
2022/05/18 09:01:40;;;;;;;9.98;5.25;;;24.80;92.30;;;;;;6297616;28;20178;-66
2022/05/18 09:04:42;;;;;;;7.40;5.07;;;24.80;92.30;;;;;;6297729;28;20131;-66
2022/05/18 09:07:43;;;;;;;8.40;5.53;;;24.90;92.20;;;;;;6297786;28;20197;-66
2022/05/18 09:10:45;;;;;;;5.00;3.67;;;25.00;91.80;;;;;;6296756;28;20086;-66
2022/05/18 09:13:47;;;;;;;9.55;4.97;;;25.00;91.80;;;;;;6296367;28;20536;-66
2022/05/18 09:16:48;;;;;;;5.82;3.97;;;25.10;91.70;;;;;;6297154;28;20140;-66
2022/05/18 09:19:50;;;;;;;6.65;4.78;;;25.10;91.60;;;;;;6297190;28;20139;-66
2022/05/18 09:22:51;;;;;;;8.73;6.80;;;25.10;91.60;;;;;;6297471;28;20097;-66
2022/05/18 09:25:53;;;;;;;3.72;3.15;;;25.20;91.70;;;;;;6297472;28;20072;-65
2022/05/18 09:28:54;;;;;;;6.10;4.00;;;25.20;91.40;;;;;;6313353;28;20046;-66
2022/05/18 09:31:57;;;;;;;4.90;3.60;;;25.30;91.40;;;;;;6313120;28;20048;-66
2022/05/18 09:34:59;;;;;;;5.22;3.30;;;25.30;91.30;;;;;;6296802;28;20594;-66
2022/05/18 09:38:00;;;;;;;4.50;3.28;;;25.40;91.20;;;;;;6294145;28;20128;-66
2022/05/18 09:41:02;;;;;;;4.55;2.85;;;25.40;91.10;;;;;;6289436;28;20072;-66
2022/05/18 09:44:05;;;;;;;7.30;3.55;;;25.50;91.00;;;;;;6295425;28;20527;-66
2022/05/18 09:47:07;;;;;;;7.47;3.40;;;25.60;90.80;;;;;;6295977;28;20133;-66
2022/05/18 09:50:09;;;;;;;8.48;5.78;;;25.70;90.80;;;;;;6296431;28;20052;-66
2022/05/18 09:53:11;;;;;;;6.55;4.55;;;25.80;90.70;;;;;;6296702;28;20047;-66
2022/05/18 09:56:12;;;;;;;6.53;4.13;;;25.90;90.50;;;;;;6295866;28;20070;-66
2022/05/18 09:59:13;;;;;;;4.85;3.50;;;25.90;90.30;;;;;;6296010;28;20052;-66
2022/05/18 10:08:53;;;;;;;5.40;4.18;;;26.00;90.10;;;;;;6296296;28;20028;-66
2022/05/18 10:11:55;;;;;;;7.38;4.60;;;26.00;90.10;;;;;;6295583;28;20048;-66
2022/05/18 10:14:56;;;;;;;4.43;3.00;;;26.10;89.80;;;;;;6296187;28;20101;-66
2022/05/18 10:17:58;;;;;;;5.10;2.95;;;26.20;89.50;;;;;;6296712;28;20048;-66
2022/05/18 10:20:59;;;;;;;5.70;3.30;;;26.20;89.60;;;;;;6295073;28;20040;-66
2022/05/18 10:24:02;;;;;;;7.53;4.47;;;26.30;89.50;;;;;;6296217;28;20045;-66
2022/05/18 10:27:04;;;;;;;4.90;3.40;;;26.30;89.30;;;;;;6295839;28;20053;-66
2022/05/18 10:30:08;;;;;;;5.00;3.17;;;26.40;89.20;;;;;;6295894;28;20064;-66
2022/05/18 10:33:10;;;;;;;3.92;2.72;;;26.60;89.10;;;;;;6294786;28;20041;-66
2022/05/18 10:36:11;;;;;;;7.10;2.97;;;26.70;88.80;;;;;;6291288;28;20056;-67
2022/05/18 10:39:13;;;;;;;4.72;2.88;;;26.70;88.50;;;;;;6312164;28;20487;-67
2022/05/18 10:42:14;;;;;;;5.55;2.72;;;26.80;88.50;;;;;;6291810;28;20071;-67
2022/05/18 10:45:16;;;;;;;5.05;2.95;;;26.80;88.60;;;;;;6294100;28;20110;-66
2022/05/18 10:48:17;;;;;;;7.03;3.20;;;26.80;88.60;;;;;;6143374;27;147881;-65
2022/05/18 10:51:19;;;;;;;4.90;2.60;;;26.90;88.70;;;;;;6254632;28;122604;-66
2022/05/18 10:54:20;;;;;;;7.40;2.70;;;26.90;88.50;;;;;;6301205;28;20145;-67
2022/05/18 10:57:22;;;;;;;5.63;2.70;;;27.00;88.10;;;;;;6315995;28;20458;-65
2022/05/18 11:00:23;;;;;;;5.28;3.38;;;27.00;88.10;;;;;;6321318;28;20044;-66
2022/05/18 11:05:13;;;;;;;4.60;2.85;;;26.90;88.10;;;;;;6264280;28;20638;-66
2022/05/18 11:08:18;;;;;;;3.80;2.80;;;27.00;88.20;;;;;;6233133;27;20533;-66
2022/05/18 11:11:38;;;;;;;6.70;3.17;;;27.10;87.80;;;;;;6165660;28;20062;-67
2022/05/18 11:14:58;;;;;;;6.25;2.83;;;27.20;87.80;;;;;;6162415;28;20070;-66
2022/05/18 11:21:39;;;;;;;5.43;3.33;;;27.30;87.40;;;;;;6068491;26;20057;-67
2022/05/18 11:25:09;;;;;;;8.63;3.50;;;27.40;87.50;;;;;;6184169;28;20069;-66
2022/05/18 11:28:42;;;;;;;3.83;2.88;;;27.50;87.50;;;;;;6210151;28;20635;-66
2022/05/18 11:32:03;;;;;;;3.65;2.53;;;27.60;87.00;;;;;;6205890;28;20043;-66
2022/05/18 11:35:14;;;;;;;5.28;3.00;;;27.60;86.80;;;;;;6214687;28;20050;-67
2022/05/18 11:38:32;;;;;;;5.78;3.15;;;27.50;86.80;;;;;;6218261;28;20054;-66
2022/05/18 11:41:44;;;;;;;4.72;3.33;;;27.50;86.60;;;;;;6219201;28;20129;-67
2022/05/18 11:44:54;;;;;;;7.97;2.90;;;27.60;86.80;;;;;;6217948;28;20132;-66
2022/05/18 11:48:16;;;;;;;6.55;3.22;;;27.70;86.50;;;;;;6225306;28;20442;-66
2022/05/18 11:51:44;;;;;;;6.60;3.60;;;27.80;87.00;;;;;;6226433;28;20115;-66
2022/05/18 11:55:17;;;;;;;5.70;2.97;;;27.90;86.30;;;;;;6217090;28;20152;-67
2022/05/18 11:59:09;;;;;;;5.93;3.30;;;28.00;86.10;;;;;;6230313;28;20264;-67
2022/05/18 12:02:23;;;;;;;5.15;2.70;;;28.00;86.10;;;;;;6217928;28;20117;-67
2022/05/18 12:06:01;;;;;;;3.22;2.65;;;28.20;85.70;;;;;;6229528;28;20049;-67
2022/05/18 12:09:13;;;;;;;5.82;3.13;;;28.30;85.40;;;;;;6242408;28;20127;-67
2022/05/18 12:12:20;;;;;;;7.63;3.38;;;28.30;85.20;;;;;;6242136;28;20059;-67
2022/05/18 12:15:51;;;;;;;5.22;2.78;;;28.30;84.90;;;;;;6207093;28;20562;-67
2022/05/18 12:19:13;;;;;;;3.65;2.55;;;28.20;85.40;;;;;;6200930;28;20133;-67
2022/05/18 12:22:21;;;;;;;4.43;2.70;;;28.10;85.60;;;;;;6212037;28;20046;-66
2022/05/18 12:25:25;;;;;;;8.57;3.45;;;28.00;84.90;;;;;;6225721;28;20084;-67
2022/05/18 12:28:29;;;;;;;5.63;2.92;;;28.20;84.60;;;;;;6203924;28;20050;-67
2022/05/18 12:31:31;;;;;;;5.78;3.47;;;28.30;85.10;;;;;;6200764;28;20112;-67
2022/05/18 12:34:36;;;;;;;3.28;2.72;;;28.30;84.90;;;;;;6200900;28;20169;-67
2022/05/18 12:38:09;;;;;;;3.95;2.97;;;28.20;85.00;;;;;;6201133;28;20060;-67
2022/05/18 12:41:13;;;;;;;4.87;2.83;;;27.90;85.10;;;;;;6177062;28;20185;-67
2022/05/18 12:44:26;;;;;;;5.88;3.17;;;27.80;85.50;;;;;;6176787;28;20504;-67
2022/05/18 12:47:48;;;;;;;4.35;2.78;;;27.90;85.30;;;;;;6176469;28;20762;-67
2022/05/18 12:51:06;;;;;;;6.20;3.50;;;27.70;85.70;;;;;;6177263;28;20434;-67
2022/05/18 12:54:29;;;;;;;5.95;3.78;;;27.50;86.00;;;;;;6200632;28;20065;-66
2022/05/18 12:57:50;;;;;;;8.63;4.40;;;27.70;86.20;;;;;;6210732;28;20050;-66
2022/05/18 13:01:04;;;;;;;11.10;4.15;;;27.90;86.50;;;;;;6200829;28;20078;-66
2022/05/18 13:04:14;;;;;;;5.40;2.88;;;28.10;86.50;;;;;;6200590;28;20137;-66
2022/05/18 13:07:28;;;;;;;8.02;3.30;;;28.10;85.30;;;;;;6199805;28;20129;-66
2022/05/18 13:10:35;;;;;;;5.78;3.10;;;27.90;85.60;;;;;;6199999;28;20054;-66
2022/05/18 13:14:01;;;;;;;4.13;3.15;;;27.60;86.10;;;;;;6200510;28;20413;-67
2022/05/18 13:17:15;;;;;;;6.75;2.90;;;27.40;86.30;;;;;;6199305;28;20518;-66
2022/05/18 13:20:25;;;;;;;;;;;27.30;86.60;;;;;;6200578;28;20141;-66
2022/05/18 13:23:50;;;;;;;8.02;3.20;;;27.20;86.60;;;;;;6199838;28;19922;-67
2022/05/18 13:26:52;;;;;;;11.02;4.10;;;27.30;86.80;;;;;;6197923;28;20124;-66
2022/05/18 13:29:56;;;;;;;5.47;3.63;;;27.30;87.00;;;;;;6200304;28;20046;-66
2022/05/18 13:32:58;;;;;;;12.93;9.95;;;27.30;86.50;;;;;;6200129;28;20093;-66
2022/05/18 13:36:00;;;;;;;18.25;13.77;;;27.40;87.80;;;;;;6199635;28;20133;-66
2022/05/18 13:39:07;;;;;;;20.45;12.48;;;27.00;89.10;;;;;;6198126;28;20050;-64
2022/05/18 13:42:18;;;;;;;19.40;12.93;;;26.80;88.50;;;;;;6199822;28;20122;-66
2022/05/18 13:45:20;;;;;;;25.20;16.20;;;26.40;87.00;;;;;;6199423;28;20097;-66
2022/05/18 13:48:24;;;;;;;22.25;15.48;;;26.10;87.20;;;;;;6198553;28;20097;-66
2022/05/18 13:51:33;;;;;;;25.00;16.52;;;25.80;88.00;;;;;;6199012;28;20050;-66
2022/05/18 13:54:40;;;;;;;22.52;13.93;;;25.60;89.40;;;;;;6199068;28;20137;-65
2022/05/18 13:57:52;;;;;;;22.73;16.10;;;25.50;89.60;;;;;;6198329;28;20061;-65
2022/05/18 14:01:04;;;;;;;23.00;15.35;;;25.50;90.00;;;;;;6198183;28;20100;-65
2022/05/18 14:04:06;;;;;;;24.02;17.88;;;25.50;90.20;;;;;;6208012;28;20494;-67
2022/05/18 14:07:08;;;;;;;25.65;18.65;;;25.40;90.40;;;;;;6218513;28;20557;-66
2022/05/18 14:10:12;;;;;;;28.67;20.23;;;25.40;90.50;;;;;;6198772;28;20046;-65
2022/05/18 14:13:14;;;;;;;23.67;19.10;;;25.40;91.00;;;;;;6198825;28;20053;-64
2022/05/18 14:16:32;;;;;;;27.80;20.45;;;25.40;91.20;;;;;;6198480;28;20112;-64
2022/05/18 14:19:42;;;;;;;30.05;22.65;;;25.60;91.40;;;;;;6196508;28;20126;-64
2022/05/18 14:22:52;;;;;;;22.77;17.25;;;25.60;91.10;;;;;;6196612;28;20046;-65
2022/05/18 14:25:56;;;;;;;32.10;23.73;;;25.60;91.10;;;;;;6188374;28;20120;-65
2022/05/18 14:29:00;;;;;;;33.65;25.10;;;25.50;91.20;;;;;;6143180;28;74738;-64
2022/05/18 14:33:16;;;;;;;35.60;25.15;;;25.30;91.70;;;;;;6309707;28;20635;-64
2022/05/18 14:36:26;;;;;;;31.00;21.60;;;25.20;92.40;;;;;;6305349;28;20186;-65
2022/05/18 14:39:32;;;;;;;36.72;28.25;;;25.20;92.20;;;;;;6232771;27;135419;-64
2022/05/18 14:42:44;;;;;;;35.63;26.25;;;25.20;92.40;;;;;;6240843;28;20056;-65
2022/05/18 14:47:46;;;;;;;39.17;30.45;;;26.10;92.50;;;;;;6244452;27;20681;-65
2022/05/18 14:50:50;;;;;;;47.00;33.67;;;26.00;92.90;;;;;;6257871;28;20182;-66
2022/05/18 14:53:54;;;;;;;43.17;35.03;;;25.90;93.00;;;;;;6269641;28;20045;-65
2022/05/18 14:57:00;;;;;;;44.92;34.20;;;25.70;93.20;;;;;;6264598;28;20053;-64
2022/05/18 15:00:07;;;;;;;38.05;29.13;;;25.80;93.50;;;;;;6255342;28;20045;-64
2022/05/18 15:03:14;;;;;;;44.85;33.85;;;25.80;93.10;;;;;;6259473;28;20075;-64
2022/05/18 15:06:16;;;;;;;46.45;32.83;;;26.00;93.20;;;;;;6265607;28;20056;-65
2022/05/18 15:09:24;;;;;;;41.78;33.80;;;26.20;93.30;;;;;;6262694;28;20099;-66
2022/05/18 15:15:41;;;;;;;40.92;31.33;;;25.20;93.10;;;;;;6326167;27;20711;-64
2022/05/18 15:18:45;;;;;;;42.72;33.80;;;25.30;93.40;;;;;;6296808;28;75024;-65
2022/05/18 15:21:47;;;;;;;50.03;34.28;;;25.30;94.10;;;;;;6312149;27;20048;-66
2022/05/18 15:24:50;;;;;;;42.42;31.25;;;25.20;93.90;;;;;;6299179;28;20062;-65
2022/05/18 15:27:54;;;;;;;43.65;32.22;;;25.20;94.20;;;;;;6316997;28;20040;-66
2022/05/18 15:31:01;;;;;;;41.53;32.42;;;25.00;94.40;;;;;;6312929;28;20415;-66
2022/05/18 15:34:12;;;;;;;41.53;29.48;;;24.60;95.10;;;;;;6292863;28;20135;-65
2022/05/18 15:37:16;;;;;;;38.42;28.05;;;24.40;95.50;;;;;;6313341;28;20135;-66
2022/05/18 15:40:19;;;;;;;41.45;28.67;;;24.00;95.60;;;;;;6297845;28;20138;-64
2022/05/18 15:43:22;;;;;;;38.28;26.83;;;23.80;96.10;;;;;;6314480;28;20130;-64
2022/05/18 15:46:30;;;;;;;36.90;26.70;;;23.70;96.50;;;;;;6310982;28;20182;-64
2022/05/18 15:49:36;;;;;;;40.00;28.60;;;23.80;96.70;;;;;;6318027;28;20044;-64
2022/05/18 15:52:38;;;;;;;44.88;31.05;;;24.00;96.30;;;;;;6317804;28;20169;-65
2022/05/18 15:55:45;;;;;;;39.80;29.20;;;24.00;95.70;;;;;;6260914;28;20412;-64
2022/05/18 15:58:47;;;;;;;38.95;29.38;;;23.90;96.10;;;;;;6334617;28;20051;-64
2022/05/18 16:01:50;;;;;;;44.78;30.02;;;24.00;96.20;;;;;;6334766;28;20488;-64
2022/05/18 16:04:52;;;;;;;24.73;18.05;;;24.10;96.40;;;;;;6335590;28;20129;-64
2022/05/18 16:07:57;;;;;;;38.38;27.27;;;24.20;95.40;;;;;;6337162;28;20770;-64
2022/05/18 16:10:59;;;;;;;20.92;14.02;;;24.20;94.70;;;;;;6339118;28;20048;-65
2022/05/18 16:14:01;;;;;;;37.20;27.70;;;24.10;94.70;;;;;;6328810;28;20133;-67
2022/05/18 16:17:05;;;;;;;39.75;27.80;;;24.10;95.10;;;;;;6308199;28;20151;-66